sensor_id;sensor_type;location;lat;lon;timestamp;pressure;altitude;pressure_sealevel;temperature;humidity
78671;BME280;68277;52.724;6.516;2023-04-24T00:00:07;99685.09;;;9.55;93.06
78671;BME280;68277;52.724;6.516;2023-04-24T00:02:36;99717.00;;;9.74;93.22
78671;BME280;68277;52.724;6.516;2023-04-24T00:05:05;99676.47;;;9.50;93.21
78671;BME280;68277;52.724;6.516;2023-04-24T00:07:31;99715.28;;;9.73;93.72
78671;BME280;68277;52.724;6.516;2023-04-24T00:09:57;99698.03;;;9.62;93.47
78671;BME280;68277;52.724;6.516;2023-04-24T00:12:23;99684.31;;;9.53;93.54
78671;BME280;68277;52.724;6.516;2023-04-24T00:14:49;99694.59;;;9.60;94.35
78671;BME280;68277;52.724;6.516;2023-04-24T00:17:14;99666.19;;;9.42;94.75
78671;BME280;68277;52.724;6.516;2023-04-24T00:19:40;99700.69;;;9.62;94.31
78671;BME280;68277;52.724;6.516;2023-04-24T00:22:06;99636.75;;;9.30;94.21
78671;BME280;68277;52.724;6.516;2023-04-24T00:24:31;99665.13;;;9.48;93.68
78671;BME280;68277;52.724;6.516;2023-04-24T00:26:57;99687.56;;;9.59;94.02
78671;BME280;68277;52.724;6.516;2023-04-24T00:29:22;99678.03;;;9.55;94.34
78671;BME280;68277;52.724;6.516;2023-04-24T00:31:48;99731.50;;;9.87;94.36
78671;BME280;68277;52.724;6.516;2023-04-24T00:34:14;99666.72;;;9.52;94.40
78671;BME280;68277;52.724;6.516;2023-04-24T00:36:41;99733.25;;;9.86;93.74
78671;BME280;68277;52.724;6.516;2023-04-24T00:39:07;99701.47;;;9.64;93.78
78671;BME280;68277;52.724;6.516;2023-04-24T00:41:35;99726.50;;;9.78;94.04
78671;BME280;68277;52.724;6.516;2023-04-24T00:44:00;99735.28;;;9.80;93.82
78671;BME280;68277;52.724;6.516;2023-04-24T00:46:27;99730.00;;;9.80;94.21
78671;BME280;68277;52.724;6.516;2023-04-24T00:48:53;99727.28;;;9.81;93.82
78671;BME280;68277;52.724;6.516;2023-04-24T00:51:18;99701.19;;;9.72;94.00
78671;BME280;68277;52.724;6.516;2023-04-24T00:53:45;99691.19;;;9.57;94.20
78671;BME280;68277;52.724;6.516;2023-04-24T00:56:10;99733.38;;;9.83;93.88
78671;BME280;68277;52.724;6.516;2023-04-24T00:58:36;99624.84;;;9.18;93.68
78671;BME280;68277;52.724;6.516;2023-04-24T01:01:03;99701.56;;;9.61;94.04
78671;BME280;68277;52.724;6.516;2023-04-24T01:03:33;99658.59;;;9.33;93.66
78671;BME280;68277;52.724;6.516;2023-04-24T01:05:58;99734.50;;;9.76;94.11
78671;BME280;68277;52.724;6.516;2023-04-24T01:08:26;99731.13;;;9.73;94.46
78671;BME280;68277;52.724;6.516;2023-04-24T01:10:53;99708.34;;;9.45;93.44
78671;BME280;68277;52.724;6.516;2023-04-24T01:13:19;99684.19;;;9.31;93.45
78671;BME280;68277;52.724;6.516;2023-04-24T01:15:46;99726.75;;;9.47;93.45
78671;BME280;68277;52.724;6.516;2023-04-24T01:18:12;99678.44;;;9.20;92.82
78671;BME280;68277;52.724;6.516;2023-04-24T01:20:39;99734.66;;;9.48;93.29
78671;BME280;68277;52.724;6.516;2023-04-24T01:23:06;99673.59;;;9.08;92.89
78671;BME280;68277;52.724;6.516;2023-04-24T01:25:32;99734.31;;;9.33;93.50
78671;BME280;68277;52.724;6.516;2023-04-24T01:27:58;99678.25;;;9.00;93.09
78671;BME280;68277;52.724;6.516;2023-04-24T01:30:24;99659.41;;;8.86;93.32
78671;BME280;68277;52.724;6.516;2023-04-24T01:32:50;99700.06;;;9.07;92.31
78671;BME280;68277;52.724;6.516;2023-04-24T01:35:16;99706.06;;;9.10;92.44
78671;BME280;68277;52.724;6.516;2023-04-24T01:37:42;99711.66;;;9.01;91.52
78671;BME280;68277;52.724;6.516;2023-04-24T01:40:08;99678.16;;;8.78;92.41
78671;BME280;68277;52.724;6.516;2023-04-24T01:42:34;99682.16;;;8.90;92.59
78671;BME280;68277;52.724;6.516;2023-04-24T01:45:01;99761.00;;;9.25;93.22
78671;BME280;68277;52.724;6.516;2023-04-24T01:47:30;99752.47;;;9.17;92.36
78671;BME280;68277;52.724;6.516;2023-04-24T01:49:59;99753.31;;;9.18;92.82
78671;BME280;68277;52.724;6.516;2023-04-24T01:52:24;99726.63;;;9.01;92.58
78671;BME280;68277;52.724;6.516;2023-04-24T01:54:52;99701.63;;;8.86;92.60
78671;BME280;68277;52.724;6.516;2023-04-24T01:57:17;99692.81;;;8.87;92.60
78671;BME280;68277;52.724;6.516;2023-04-24T01:59:43;99711.91;;;8.93;92.83
78671;BME280;68277;52.724;6.516;2023-04-24T02:02:08;99697.28;;;8.85;92.78
78671;BME280;68277;52.724;6.516;2023-04-24T02:04:34;99748.94;;;9.17;92.45
78671;BME280;68277;52.724;6.516;2023-04-24T02:07:00;99686.09;;;8.77;92.81
78671;BME280;68277;52.724;6.516;2023-04-24T02:09:25;99757.00;;;9.14;92.95
78671;BME280;68277;52.724;6.516;2023-04-24T02:11:51;99734.66;;;8.98;92.80
78671;BME280;68277;52.724;6.516;2023-04-24T02:14:17;99726.84;;;8.94;92.69
78671;BME280;68277;52.724;6.516;2023-04-24T02:16:42;99722.69;;;8.87;92.06
78671;BME280;68277;52.724;6.516;2023-04-24T02:19:09;99761.56;;;9.09;92.33
78671;BME280;68277;52.724;6.516;2023-04-24T02:21:34;99719.09;;;8.90;92.73
78671;BME280;68277;52.724;6.516;2023-04-24T02:24:00;99772.13;;;9.09;92.77
78671;BME280;68277;52.724;6.516;2023-04-24T02:26:26;99760.59;;;9.11;92.12
78671;BME280;68277;52.724;6.516;2023-04-24T02:28:51;99689.75;;;8.73;93.01
78671;BME280;68277;52.724;6.516;2023-04-24T02:31:19;99741.75;;;8.95;92.13
78671;BME280;68277;52.724;6.516;2023-04-24T02:33:46;99647.78;;;8.41;92.23
78671;BME280;68277;52.724;6.516;2023-04-24T02:36:12;99750.44;;;8.99;91.61
78671;BME280;68277;52.724;6.516;2023-04-24T02:38:38;99705.50;;;8.76;92.06
78671;BME280;68277;52.724;6.516;2023-04-24T02:41:04;99760.69;;;9.08;92.09
78671;BME280;68277;52.724;6.516;2023-04-24T02:43:31;99755.47;;;9.07;92.54
78671;BME280;68277;52.724;6.516;2023-04-24T02:45:57;99734.00;;;8.91;91.94
78671;BME280;68277;52.724;6.516;2023-04-24T02:48:22;99721.91;;;8.84;92.09
78671;BME280;68277;52.724;6.516;2023-04-24T02:50:49;99757.41;;;9.02;92.47
78671;BME280;68277;52.724;6.516;2023-04-24T02:53:16;99653.78;;;8.44;91.88
78671;BME280;68277;52.724;6.516;2023-04-24T02:55:43;99697.13;;;8.63;91.03
78671;BME280;68277;52.724;6.516;2023-04-24T02:58:08;99716.78;;;8.79;91.08
78671;BME280;68277;52.724;6.516;2023-04-24T03:00:35;99711.59;;;8.76;91.54
78671;BME280;68277;52.724;6.516;2023-04-24T03:03:01;99718.69;;;8.76;91.33
78671;BME280;68277;52.724;6.516;2023-04-24T03:05:26;99674.66;;;8.52;91.20
78671;BME280;68277;52.724;6.516;2023-04-24T03:07:52;99722.78;;;8.84;90.99
78671;BME280;68277;52.724;6.516;2023-04-24T03:10:20;99731.56;;;8.85;91.01
78671;BME280;68277;52.724;6.516;2023-04-24T03:12:48;99758.38;;;8.99;92.25
78671;BME280;68277;52.724;6.516;2023-04-24T03:15:14;99704.06;;;8.66;91.56
78671;BME280;68277;52.724;6.516;2023-04-24T03:17:41;99768.06;;;8.99;92.31
78671;BME280;68277;52.724;6.516;2023-04-24T03:20:08;99729.41;;;8.71;92.54
78671;BME280;68277;52.724;6.516;2023-04-24T03:22:34;99750.19;;;8.80;91.83
78671;BME280;68277;52.724;6.516;2023-04-24T03:25:02;99766.31;;;8.98;91.97
78671;BME280;68277;52.724;6.516;2023-04-24T03:27:30;99699.91;;;8.59;92.13
78671;BME280;68277;52.724;6.516;2023-04-24T03:30:00;99658.72;;;8.27;92.46
78671;BME280;68277;52.724;6.516;2023-04-24T03:32:35;99698.22;;;8.56;93.25
78671;BME280;68277;52.724;6.516;2023-04-24T03:35:01;99742.59;;;8.71;93.08
78671;BME280;68277;52.724;6.516;2023-04-24T03:37:27;99777.00;;;8.94;93.66
78671;BME280;68277;52.724;6.516;2023-04-24T03:40:14;99665.81;;;8.25;93.93
78671;BME280;68277;52.724;6.516;2023-04-24T03:42:40;99773.66;;;8.88;93.65
78671;BME280;68277;52.724;6.516;2023-04-24T03:45:07;99710.69;;;8.51;94.05
78671;BME280;68277;52.724;6.516;2023-04-24T03:47:37;99687.56;;;8.33;93.51
78671;BME280;68277;52.724;6.516;2023-04-24T03:50:05;99689.38;;;8.31;94.55
78671;BME280;68277;52.724;6.516;2023-04-24T03:52:31;99734.09;;;8.62;94.57
78671;BME280;68277;52.724;6.516;2023-04-24T03:54:57;99775.47;;;8.87;94.68
78671;BME280;68277;52.724;6.516;2023-04-24T03:57:24;99779.78;;;8.90;94.71
78671;BME280;68277;52.724;6.516;2023-04-24T04:00:06;99717.66;;;8.54;94.48
78671;BME280;68277;52.724;6.516;2023-04-24T04:02:40;99672.72;;;8.29;94.34
78671;BME280;68277;52.724;6.516;2023-04-24T04:05:05;99747.00;;;8.71;94.21
78671;BME280;68277;52.724;6.516;2023-04-24T04:07:31;99727.31;;;8.53;94.35
78671;BME280;68277;52.724;6.516;2023-04-24T04:10:03;99740.41;;;8.56;94.58
78671;BME280;68277;52.724;6.516;2023-04-24T04:12:29;99789.63;;;8.85;94.75
78671;BME280;68277;52.724;6.516;2023-04-24T04:14:55;99715.38;;;8.42;94.91
78671;BME280;68277;52.724;6.516;2023-04-24T04:17:21;99765.44;;;8.71;94.73
78671;BME280;68277;52.724;6.516;2023-04-24T04:19:47;99763.78;;;8.68;94.78
78671;BME280;68277;52.724;6.516;2023-04-24T04:22:13;99785.59;;;8.73;95.10
78671;BME280;68277;52.724;6.516;2023-04-24T04:24:42;99796.81;;;8.80;94.95
78671;BME280;68277;52.724;6.516;2023-04-24T04:27:09;99773.53;;;8.65;94.77
78671;BME280;68277;52.724;6.516;2023-04-24T04:29:43;99795.22;;;8.74;94.31
78671;BME280;68277;52.724;6.516;2023-04-24T04:32:10;99762.53;;;8.52;94.92
78671;BME280;68277;52.724;6.516;2023-04-24T04:34:36;99699.53;;;8.14;94.95
78671;BME280;68277;52.724;6.516;2023-04-24T04:37:04;99703.03;;;8.14;94.64
78671;BME280;68277;52.724;6.516;2023-04-24T04:39:52;99775.97;;;8.43;94.41
78671;BME280;68277;52.724;6.516;2023-04-24T04:42:22;99739.66;;;8.23;94.32
78671;BME280;68277;52.724;6.516;2023-04-24T04:44:49;99746.53;;;8.29;94.46
78671;BME280;68277;52.724;6.516;2023-04-24T04:47:22;99745.72;;;8.27;94.79
78671;BME280;68277;52.724;6.516;2023-04-24T04:49:54;99810.59;;;8.60;94.33
78671;BME280;68277;52.724;6.516;2023-04-24T04:52:23;99802.03;;;8.54;94.55
78671;BME280;68277;52.724;6.516;2023-04-24T04:54:55;99777.03;;;8.38;94.51
78671;BME280;68277;52.724;6.516;2023-04-24T04:57:24;99785.47;;;8.49;94.43
78671;BME280;68277;52.724;6.516;2023-04-24T04:59:50;99755.28;;;8.31;94.23
78671;BME280;68277;52.724;6.516;2023-04-24T05:02:26;99746.53;;;8.29;94.34
78671;BME280;68277;52.724;6.516;2023-04-24T05:04:52;99745.56;;;8.32;95.10
78671;BME280;68277;52.724;6.516;2023-04-24T05:07:17;99791.34;;;8.58;94.72
78671;BME280;68277;52.724;6.516;2023-04-24T05:09:48;99780.19;;;8.49;94.99
78671;BME280;68277;52.724;6.516;2023-04-24T05:12:13;99755.13;;;8.36;94.83
78671;BME280;68277;52.724;6.516;2023-04-24T05:14:46;99763.78;;;8.41;94.95
78671;BME280;68277;52.724;6.516;2023-04-24T05:17:12;99749.75;;;8.39;95.18
78671;BME280;68277;52.724;6.516;2023-04-24T05:19:37;99805.00;;;8.71;94.53
78671;BME280;68277;52.724;6.516;2023-04-24T05:22:04;99789.66;;;8.56;95.16
78671;BME280;68277;52.724;6.516;2023-04-24T05:24:34;99774.84;;;8.52;95.10
78671;BME280;68277;52.724;6.516;2023-04-24T05:27:08;99772.34;;;8.47;95.58
78671;BME280;68277;52.724;6.516;2023-04-24T05:29:38;99770.59;;;8.48;95.95
78671;BME280;68277;52.724;6.516;2023-04-24T05:32:04;99778.53;;;8.46;96.04
78671;BME280;68277;52.724;6.516;2023-04-24T05:34:30;99820.84;;;8.71;96.12
78671;BME280;68277;52.724;6.516;2023-04-24T05:36:57;99783.78;;;8.48;95.83
78671;BME280;68277;52.724;6.516;2023-04-24T05:39:22;99805.31;;;8.62;95.91
78671;BME280;68277;52.724;6.516;2023-04-24T05:41:50;99769.03;;;8.41;96.10
78671;BME280;68277;52.724;6.516;2023-04-24T05:44:16;99803.63;;;8.59;96.85
78671;BME280;68277;52.724;6.516;2023-04-24T05:46:42;99825.09;;;8.75;97.43
78671;BME280;68277;52.724;6.516;2023-04-24T05:49:09;99795.56;;;8.64;98.41
78671;BME280;68277;52.724;6.516;2023-04-24T05:51:35;99849.78;;;9.02;98.08
78671;BME280;68277;52.724;6.516;2023-04-24T05:54:01;99745.31;;;8.41;98.45
78671;BME280;68277;52.724;6.516;2023-04-24T05:56:28;99785.69;;;8.70;98.41
78671;BME280;68277;52.724;6.516;2023-04-24T05:58:54;99809.22;;;8.76;98.66
78671;BME280;68277;52.724;6.516;2023-04-24T06:01:20;99859.16;;;9.10;98.45
78671;BME280;68277;52.724;6.516;2023-04-24T06:03:57;99810.97;;;8.77;98.34
78671;BME280;68277;52.724;6.516;2023-04-24T06:06:24;99851.53;;;9.01;98.20
78671;BME280;68277;52.724;6.516;2023-04-24T06:08:50;99826.50;;;8.86;98.26
78671;BME280;68277;52.724;6.516;2023-04-24T06:11:16;99848.22;;;8.94;98.12
78671;BME280;68277;52.724;6.516;2023-04-24T06:13:42;99872.72;;;9.00;98.01
78671;BME280;68277;52.724;6.516;2023-04-24T06:16:26;99845.81;;;8.87;97.55
78671;BME280;68277;52.724;6.516;2023-04-24T06:18:58;99851.97;;;8.87;98.05
78671;BME280;68277;52.724;6.516;2023-04-24T06:21:24;99881.31;;;9.05;97.99
78671;BME280;68277;52.724;6.516;2023-04-24T06:23:50;99840.69;;;8.82;98.64
78671;BME280;68277;52.724;6.516;2023-04-24T06:26:16;99887.56;;;9.02;98.11
78671;BME280;68277;52.724;6.516;2023-04-24T06:28:42;99869.28;;;8.96;98.53
78671;BME280;68277;52.724;6.516;2023-04-24T06:31:07;99884.97;;;9.01;98.36
78671;BME280;68277;52.724;6.516;2023-04-24T06:33:32;99863.50;;;8.83;98.54
78671;BME280;68277;52.724;6.516;2023-04-24T06:35:58;99902.34;;;9.08;98.70
78671;BME280;68277;52.724;6.516;2023-04-24T06:38:24;99907.53;;;9.11;98.38
78671;BME280;68277;52.724;6.516;2023-04-24T06:40:49;99887.75;;;8.96;98.38
78671;BME280;68277;52.724;6.516;2023-04-24T06:43:15;99924.72;;;9.24;98.31
78671;BME280;68277;52.724;6.516;2023-04-24T06:45:40;99878.16;;;8.93;98.16
78671;BME280;68277;52.724;6.516;2023-04-24T06:48:06;99899.84;;;9.03;98.28
78671;BME280;68277;52.724;6.516;2023-04-24T06:50:31;99921.47;;;9.16;98.27
78671;BME280;68277;52.724;6.516;2023-04-24T06:52:57;99912.00;;;9.09;98.10
78671;BME280;68277;52.724;6.516;2023-04-24T06:55:22;99925.16;;;9.10;97.87
78671;BME280;68277;52.724;6.516;2023-04-24T06:57:48;99900.88;;;8.99;97.83
78671;BME280;68277;52.724;6.516;2023-04-24T07:00:14;99927.63;;;9.15;98.24
78671;BME280;68277;52.724;6.516;2023-04-24T07:02:41;99898.31;;;8.96;97.70
78671;BME280;68277;52.724;6.516;2023-04-24T07:05:06;99945.06;;;9.20;97.51
78671;BME280;68277;52.724;6.516;2023-04-24T07:07:33;99938.03;;;9.21;97.36
78671;BME280;68277;52.724;6.516;2023-04-24T07:09:59;99925.06;;;9.13;96.70
78671;BME280;68277;52.724;6.516;2023-04-24T07:12:25;99949.91;;;9.34;96.44
78671;BME280;68277;52.724;6.516;2023-04-24T07:14:51;99952.72;;;9.29;95.96
78671;BME280;68277;52.724;6.516;2023-04-24T07:17:16;99968.53;;;9.29;95.85
78671;BME280;68277;52.724;6.516;2023-04-24T07:19:42;99931.31;;;9.09;95.13
78671;BME280;68277;52.724;6.516;2023-04-24T07:22:10;99964.94;;;9.32;96.27
78671;BME280;68277;52.724;6.516;2023-04-24T07:24:42;99954.56;;;9.26;96.08
78671;BME280;68277;52.724;6.516;2023-04-24T07:27:08;99929.47;;;9.13;95.55
78671;BME280;68277;52.724;6.516;2023-04-24T07:29:33;99975.38;;;9.36;95.63
78671;BME280;68277;52.724;6.516;2023-04-24T07:31:59;99965.63;;;9.38;95.36
78671;BME280;68277;52.724;6.516;2023-04-24T07:34:25;99953.00;;;9.20;95.65
78671;BME280;68277;52.724;6.516;2023-04-24T07:36:50;99964.28;;;9.25;95.79
78671;BME280;68277;52.724;6.516;2023-04-24T07:39:17;99984.38;;;9.29;95.56
78671;BME280;68277;52.724;6.516;2023-04-24T07:41:43;100005.38;;;9.34;95.53
78671;BME280;68277;52.724;6.516;2023-04-24T07:44:09;99974.97;;;9.21;95.70
78671;BME280;68277;52.724;6.516;2023-04-24T07:46:35;100002.59;;;9.38;95.50
78671;BME280;68277;52.724;6.516;2023-04-24T07:49:00;99979.41;;;9.19;96.01
78671;BME280;68277;52.724;6.516;2023-04-24T07:51:26;100012.41;;;9.33;95.39
78671;BME280;68277;52.724;6.516;2023-04-24T07:53:56;99965.03;;;9.01;95.62
78671;BME280;68277;52.724;6.516;2023-04-24T07:56:22;99968.56;;;9.00;95.42
78671;BME280;68277;52.724;6.516;2023-04-24T07:58:47;100015.44;;;9.21;96.13
78671;BME280;68277;52.724;6.516;2023-04-24T08:01:14;100022.50;;;9.21;95.94
78671;BME280;68277;52.724;6.516;2023-04-24T08:03:39;100036.47;;;9.24;95.41
78671;BME280;68277;52.724;6.516;2023-04-24T08:06:05;99996.69;;;9.01;95.88
78671;BME280;68277;52.724;6.516;2023-04-24T08:08:30;100016.50;;;9.14;96.27
78671;BME280;68277;52.724;6.516;2023-04-24T08:10:56;100007.09;;;9.06;96.17
78671;BME280;68277;52.724;6.516;2023-04-24T08:13:22;100041.00;;;9.19;96.01
78671;BME280;68277;52.724;6.516;2023-04-24T08:15:47;100043.84;;;9.13;95.16
78671;BME280;68277;52.724;6.516;2023-04-24T08:18:14;100063.75;;;9.23;95.99
78671;BME280;68277;52.724;6.516;2023-04-24T08:20:41;100039.50;;;9.11;95.75
78671;BME280;68277;52.724;6.516;2023-04-24T08:23:07;100055.16;;;9.17;95.33
78671;BME280;68277;52.724;6.516;2023-04-24T08:25:33;100069.16;;;9.20;95.12
78671;BME280;68277;52.724;6.516;2023-04-24T08:28:02;100045.97;;;9.01;95.31
78671;BME280;68277;52.724;6.516;2023-04-24T08:30:28;100092.84;;;9.22;94.57
78671;BME280;68277;52.724;6.516;2023-04-24T08:32:53;100092.22;;;9.14;94.49
78671;BME280;68277;52.724;6.516;2023-04-24T08:35:19;100106.06;;;9.22;94.76
78671;BME280;68277;52.724;6.516;2023-04-24T08:37:44;100093.19;;;9.11;94.60
78671;BME280;68277;52.724;6.516;2023-04-24T08:40:13;100118.63;;;9.14;94.98
78671;BME280;68277;52.724;6.516;2023-04-24T08:42:44;100118.84;;;9.05;94.67
78671;BME280;68277;52.724;6.516;2023-04-24T08:45:13;100097.50;;;8.83;94.90
78671;BME280;68277;52.724;6.516;2023-04-24T08:47:40;100095.81;;;8.79;94.73
78671;BME280;68277;52.724;6.516;2023-04-24T08:50:06;100114.16;;;8.83;94.62
78671;BME280;68277;52.724;6.516;2023-04-24T08:52:33;100138.72;;;8.87;94.63
78671;BME280;68277;52.724;6.516;2023-04-24T08:55:03;100134.50;;;8.80;94.87
78671;BME280;68277;52.724;6.516;2023-04-24T08:57:29;100143.25;;;8.82;94.82
78671;BME280;68277;52.724;6.516;2023-04-24T08:59:56;100162.72;;;8.76;93.38
78671;BME280;68277;52.724;6.516;2023-04-24T09:02:23;100165.56;;;8.69;94.19
78671;BME280;68277;52.724;6.516;2023-04-24T09:04:49;100168.97;;;8.72;94.22
78671;BME280;68277;52.724;6.516;2023-04-24T09:07:16;100158.03;;;8.54;93.79
78671;BME280;68277;52.724;6.516;2023-04-24T09:09:43;100156.47;;;8.47;93.55
78671;BME280;68277;52.724;6.516;2023-04-24T09:12:09;100171.34;;;8.49;93.67
78671;BME280;68277;52.724;6.516;2023-04-24T09:14:36;100163.84;;;8.33;92.98
78671;BME280;68277;52.724;6.516;2023-04-24T09:17:06;100169.81;;;8.39;92.76
78671;BME280;68277;52.724;6.516;2023-04-24T09:19:31;100153.34;;;8.30;92.78
78671;BME280;68277;52.724;6.516;2023-04-24T09:21:57;100188.03;;;8.50;93.34
78671;BME280;68277;52.724;6.516;2023-04-24T09:24:22;100174.19;;;8.40;92.25
78671;BME280;68277;52.724;6.516;2023-04-24T09:26:49;100204.63;;;8.53;92.73
78671;BME280;68277;52.724;6.516;2023-04-24T09:29:18;100210.66;;;8.58;92.63
78671;BME280;68277;52.724;6.516;2023-04-24T09:31:44;100162.13;;;8.30;92.74
78671;BME280;68277;52.724;6.516;2023-04-24T09:34:11;100207.31;;;8.52;93.11
78671;BME280;68277;52.724;6.516;2023-04-24T09:36:38;100198.81;;;8.41;92.90
78671;BME280;68277;52.724;6.516;2023-04-24T09:39:12;100204.78;;;8.47;93.14
78671;BME280;68277;52.724;6.516;2023-04-24T09:41:53;100193.66;;;8.35;93.95
78671;BME280;68277;52.724;6.516;2023-04-24T09:44:20;100214.63;;;8.41;93.16
78671;BME280;68277;52.724;6.516;2023-04-24T09:46:55;100214.56;;;8.42;92.82
78671;BME280;68277;52.724;6.516;2023-04-24T09:49:26;100235.56;;;8.47;93.28
78671;BME280;68277;52.724;6.516;2023-04-24T09:51:52;100233.81;;;8.46;93.33
78671;BME280;68277;52.724;6.516;2023-04-24T09:54:20;100235.50;;;8.50;93.17
78671;BME280;68277;52.724;6.516;2023-04-24T09:56:47;100259.50;;;8.76;93.32
78671;BME280;68277;52.724;6.516;2023-04-24T09:59:15;100264.59;;;8.82;91.99
78671;BME280;68277;52.724;6.516;2023-04-24T10:01:41;100220.22;;;8.62;92.62
78671;BME280;68277;52.724;6.516;2023-04-24T10:04:18;100261.66;;;8.94;91.85
78671;BME280;68277;52.724;6.516;2023-04-24T10:06:45;100275.31;;;9.11;91.81
78671;BME280;68277;52.724;6.516;2023-04-24T10:09:11;100284.00;;;9.15;90.61
78671;BME280;68277;52.724;6.516;2023-04-24T10:11:45;100277.75;;;9.19;90.86
78671;BME280;68277;52.724;6.516;2023-04-24T10:14:16;100276.91;;;9.18;90.73
78671;BME280;68277;52.724;6.516;2023-04-24T10:16:43;100260.56;;;9.03;90.47
78671;BME280;68277;52.724;6.516;2023-04-24T10:19:09;100257.34;;;8.91;90.09
78671;BME280;68277;52.724;6.516;2023-04-24T10:21:36;100300.13;;;9.04;90.16
78671;BME280;68277;52.724;6.516;2023-04-24T10:24:07;100298.13;;;8.78;89.55
78671;BME280;68277;52.724;6.516;2023-04-24T10:26:34;100288.09;;;8.56;89.12
78671;BME280;68277;52.724;6.516;2023-04-24T10:29:00;100331.22;;;8.53;89.61
78671;BME280;68277;52.724;6.516;2023-04-24T10:31:28;100341.94;;;8.46;89.65
78671;BME280;68277;52.724;6.516;2023-04-24T10:33:56;100342.91;;;8.42;90.65
78671;BME280;68277;52.724;6.516;2023-04-24T10:36:24;100354.38;;;8.41;89.54
78671;BME280;68277;52.724;6.516;2023-04-24T10:38:52;100340.41;;;8.36;88.96
78671;BME280;68277;52.724;6.516;2023-04-24T10:41:20;100330.19;;;8.19;87.87
78671;BME280;68277;52.724;6.516;2023-04-24T10:44:03;100359.66;;;8.39;88.86
78671;BME280;68277;52.724;6.516;2023-04-24T10:46:30;100354.47;;;8.35;87.55
78671;BME280;68277;52.724;6.516;2023-04-24T10:48:55;100361.38;;;8.42;87.81
78671;BME280;68277;52.724;6.516;2023-04-24T10:51:23;100315.31;;;8.16;86.83
78671;BME280;68277;52.724;6.516;2023-04-24T10:53:51;100336.81;;;8.40;87.46
78671;BME280;68277;52.724;6.516;2023-04-24T10:56:17;100365.56;;;8.52;87.50
78671;BME280;68277;52.724;6.516;2023-04-24T10:58:50;100381.22;;;8.59;85.32
78671;BME280;68277;52.724;6.516;2023-04-24T11:01:28;100369.22;;;8.45;85.22
78671;BME280;68277;52.724;6.516;2023-04-24T11:03:58;100373.56;;;8.47;87.78
78671;BME280;68277;52.724;6.516;2023-04-24T11:06:34;100379.53;;;8.55;87.14
78671;BME280;68277;52.724;6.516;2023-04-24T11:09:05;100395.88;;;8.72;85.57
78671;BME280;68277;52.724;6.516;2023-04-24T11:11:33;100385.16;;;8.80;87.32
78671;BME280;68277;52.724;6.516;2023-04-24T11:14:01;100395.97;;;9.06;86.02
78671;BME280;68277;52.724;6.516;2023-04-24T11:22:14;100401.03;;;9.15;84.46
78671;BME280;68277;52.724;6.516;2023-04-24T11:24:49;100409.75;;;9.19;84.41
78671;BME280;68277;52.724;6.516;2023-04-24T11:27:22;100389.88;;;9.04;85.73
78671;BME280;68277;52.724;6.516;2023-04-24T11:29:51;100412.66;;;9.08;84.50
78671;BME280;68277;52.724;6.516;2023-04-24T11:34:58;100386.91;;;8.79;84.90
78671;BME280;68277;52.724;6.516;2023-04-24T11:37:26;100407.03;;;8.85;83.56
78671;BME280;68277;52.724;6.516;2023-04-24T11:39:57;100410.56;;;8.84;82.87
78671;BME280;68277;52.724;6.516;2023-04-24T11:42:23;100404.56;;;8.77;84.23
78671;BME280;68277;52.724;6.516;2023-04-24T11:44:51;100407.41;;;8.67;80.80
78671;BME280;68277;52.724;6.516;2023-04-24T11:47:17;100404.56;;;8.77;80.45
78671;BME280;68277;52.724;6.516;2023-04-24T11:49:42;100417.38;;;8.94;82.45
78671;BME280;68277;52.724;6.516;2023-04-24T11:52:08;100403.91;;;9.05;80.73
78671;BME280;68277;52.724;6.516;2023-04-24T11:54:34;100370.88;;;8.88;78.84
78671;BME280;68277;52.724;6.516;2023-04-24T11:57:03;100400.50;;;9.01;78.08
78671;BME280;68277;52.724;6.516;2023-04-24T11:59:29;100422.22;;;9.12;80.52
78671;BME280;68277;52.724;6.516;2023-04-24T12:01:54;100429.22;;;9.15;78.84
78671;BME280;68277;52.724;6.516;2023-04-24T12:04:20;100465.03;;;9.26;78.07
78671;BME280;68277;52.724;6.516;2023-04-24T12:07:04;100439.03;;;9.08;80.85
78671;BME280;68277;52.724;6.516;2023-04-24T12:09:43;100446.03;;;9.11;81.15
78671;BME280;68277;52.724;6.516;2023-04-24T12:12:14;100445.16;;;9.10;77.97
78671;BME280;68277;52.724;6.516;2023-04-24T12:14:54;100471.41;;;9.16;78.17
78671;BME280;68277;52.724;6.516;2023-04-24T12:17:41;100481.25;;;9.10;78.50
78671;BME280;68277;52.724;6.516;2023-04-24T12:20:08;100463.22;;;8.90;79.90
78671;BME280;68277;52.724;6.516;2023-04-24T12:22:49;100480.44;;;9.06;80.72
78671;BME280;68277;52.724;6.516;2023-04-24T12:25:17;100469.88;;;9.06;79.34
78671;BME280;68277;52.724;6.516;2023-04-24T12:27:43;100453.38;;;8.97;80.12
78671;BME280;68277;52.724;6.516;2023-04-24T12:30:12;100447.28;;;8.93;79.80
78671;BME280;68277;52.724;6.516;2023-04-24T12:32:44;100418.03;;;8.64;79.48
78671;BME280;68277;52.724;6.516;2023-04-24T12:35:11;100456.44;;;8.78;80.15
78671;BME280;68277;52.724;6.516;2023-04-24T12:37:37;100493.38;;;8.78;80.41
78671;BME280;68277;52.724;6.516;2023-04-24T12:40:09;100485.94;;;8.54;80.60
78671;BME280;68277;52.724;6.516;2023-04-24T12:42:41;100501.53;;;8.65;82.00
78671;BME280;68277;52.724;6.516;2023-04-24T12:45:07;100476.91;;;8.66;80.41
78671;BME280;68277;52.724;6.516;2023-04-24T12:47:35;100515.28;;;8.82;80.32
78671;BME280;68277;52.724;6.516;2023-04-24T12:50:02;100521.31;;;8.87;80.49
78671;BME280;68277;52.724;6.516;2023-04-24T12:52:29;100510.13;;;8.76;79.13
78671;BME280;68277;52.724;6.516;2023-04-24T12:54:56;100476.09;;;8.64;80.19
78671;BME280;68277;52.724;6.516;2023-04-24T12:57:23;100466.47;;;8.61;79.88
78671;BME280;68277;52.724;6.516;2023-04-24T12:59:49;100476.84;;;8.69;79.98
78671;BME280;68277;52.724;6.516;2023-04-24T13:02:15;100507.41;;;8.80;79.47
78671;BME280;68277;52.724;6.516;2023-04-24T13:04:49;100517.97;;;8.79;78.71
78671;BME280;68277;52.724;6.516;2023-04-24T13:07:16;100518.75;;;8.84;80.28
78671;BME280;68277;52.724;6.516;2023-04-24T13:09:43;100485.69;;;8.66;80.05
78671;BME280;68277;52.724;6.516;2023-04-24T13:12:10;100542.16;;;9.01;80.53
78671;BME280;68277;52.724;6.516;2023-04-24T13:14:36;100525.81;;;8.82;79.95
78671;BME280;68277;52.724;6.516;2023-04-24T13:17:02;100486.09;;;8.47;80.60